sensor_id;sensor_type;location;lat;lon;timestamp;temperature;humidity
24162;DHT22;12318;51.262;7.066;2023-07-13T00:00:24;16.20;99.90
24162;DHT22;12318;51.262;7.066;2023-07-13T00:02:50;16.30;99.90
24162;DHT22;12318;51.262;7.066;2023-07-13T00:05:23;16.20;99.90
24162;DHT22;12318;51.262;7.066;2023-07-13T00:07:51;16.20;99.90
24162;DHT22;12318;51.262;7.066;2023-07-13T00:10:18;16.20;99.90
24162;DHT22;12318;51.262;7.066;2023-07-13T00:12:44;16.10;99.90
24162;DHT22;12318;51.262;7.066;2023-07-13T00:15:17;16.10;99.90
24162;DHT22;12318;51.262;7.066;2023-07-13T00:17:52;16.10;99.90
24162;DHT22;12318;51.262;7.066;2023-07-13T00:20:18;16.10;99.90
24162;DHT22;12318;51.262;7.066;2023-07-13T00:22:47;16.20;99.90
24162;DHT22;12318;51.262;7.066;2023-07-13T00:25:13;16.20;99.90
24162;DHT22;12318;51.262;7.066;2023-07-13T00:27:41;16.10;99.90
24162;DHT22;12318;51.262;7.066;2023-07-13T00:30:07;16.00;99.90
24162;DHT22;12318;51.262;7.066;2023-07-13T00:32:34;16.00;99.90
24162;DHT22;12318;51.262;7.066;2023-07-13T00:35:01;15.90;99.90
24162;DHT22;12318;51.262;7.066;2023-07-13T00:37:27;15.90;99.90
24162;DHT22;12318;51.262;7.066;2023-07-13T00:39:52;15.90;99.90
24162;DHT22;12318;51.262;7.066;2023-07-13T00:42:18;15.80;99.90
24162;DHT22;12318;51.262;7.066;2023-07-13T00:45:05;15.80;99.90
24162;DHT22;12318;51.262;7.066;2023-07-13T00:47:32;15.80;99.90
24162;DHT22;12318;51.262;7.066;2023-07-13T00:49:58;15.80;99.90
24162;DHT22;12318;51.262;7.066;2023-07-13T00:52:27;15.70;99.90
24162;DHT22;12318;51.262;7.066;2023-07-13T00:54:54;15.70;99.90
24162;DHT22;12318;51.262;7.066;2023-07-13T00:57:21;15.70;99.90
24162;DHT22;12318;51.262;7.066;2023-07-13T00:59:53;15.70;99.90
24162;DHT22;12318;51.262;7.066;2023-07-13T01:02:20;15.70;99.90
24162;DHT22;12318;51.262;7.066;2023-07-13T01:04:47;15.70;99.90
24162;DHT22;12318;51.262;7.066;2023-07-13T01:07:13;15.70;99.90
24162;DHT22;12318;51.262;7.066;2023-07-13T01:09:39;15.70;99.90
24162;DHT22;12318;51.262;7.066;2023-07-13T01:12:06;15.70;99.90
24162;DHT22;12318;51.262;7.066;2023-07-13T01:14:32;15.70;99.90
24162;DHT22;12318;51.262;7.066;2023-07-13T01:16:58;15.70;99.90
24162;DHT22;12318;51.262;7.066;2023-07-13T01:22:05;15.60;99.90
24162;DHT22;12318;51.262;7.066;2023-07-13T01:24:35;15.60;99.90
24162;DHT22;12318;51.262;7.066;2023-07-13T01:27:02;15.60;99.90
24162;DHT22;12318;51.262;7.066;2023-07-13T01:29:29;15.60;99.90
24162;DHT22;12318;51.262;7.066;2023-07-13T01:31:55;15.60;99.90
24162;DHT22;12318;51.262;7.066;2023-07-13T01:34:21;15.60;99.90
24162;DHT22;12318;51.262;7.066;2023-07-13T01:36:47;15.60;99.90
24162;DHT22;12318;51.262;7.066;2023-07-13T01:39:13;15.60;99.90
24162;DHT22;12318;51.262;7.066;2023-07-13T01:41:40;15.60;99.90
24162;DHT22;12318;51.262;7.066;2023-07-13T01:44:05;15.50;99.90
24162;DHT22;12318;51.262;7.066;2023-07-13T01:46:31;15.60;99.90
24162;DHT22;12318;51.262;7.066;2023-07-13T01:48:57;15.50;99.90
24162;DHT22;12318;51.262;7.066;2023-07-13T01:51:23;15.50;99.90
24162;DHT22;12318;51.262;7.066;2023-07-13T01:53:49;15.50;99.90
24162;DHT22;12318;51.262;7.066;2023-07-13T01:56:15;15.50;99.90
24162;DHT22;12318;51.262;7.066;2023-07-13T01:58:41;15.50;99.90
24162;DHT22;12318;51.262;7.066;2023-07-13T02:01:07;15.50;99.90
24162;DHT22;12318;51.262;7.066;2023-07-13T02:03:32;15.40;99.90
24162;DHT22;12318;51.262;7.066;2023-07-13T02:05:58;15.50;99.90
24162;DHT22;12318;51.262;7.066;2023-07-13T02:08:24;15.40;99.90
24162;DHT22;12318;51.262;7.066;2023-07-13T02:10:50;15.40;99.90
24162;DHT22;12318;51.262;7.066;2023-07-13T02:13:15;15.40;99.90
24162;DHT22;12318;51.262;7.066;2023-07-13T02:15:41;15.30;99.90
24162;DHT22;12318;51.262;7.066;2023-07-13T02:18:07;15.20;99.90
24162;DHT22;12318;51.262;7.066;2023-07-13T02:20:33;15.20;99.90
24162;DHT22;12318;51.262;7.066;2023-07-13T02:22:59;15.20;99.90
24162;DHT22;12318;51.262;7.066;2023-07-13T02:25:25;15.20;99.90
24162;DHT22;12318;51.262;7.066;2023-07-13T02:27:52;15.10;99.90
24162;DHT22;12318;51.262;7.066;2023-07-13T02:30:18;15.00;99.90
24162;DHT22;12318;51.262;7.066;2023-07-13T02:32:44;15.00;99.90
24162;DHT22;12318;51.262;7.066;2023-07-13T02:35:10;15.00;99.90
24162;DHT22;12318;51.262;7.066;2023-07-13T02:40:11;15.00;99.90
24162;DHT22;12318;51.262;7.066;2023-07-13T02:42:38;15.00;99.90
24162;DHT22;12318;51.262;7.066;2023-07-13T02:45:04;15.00;99.90
24162;DHT22;12318;51.262;7.066;2023-07-13T02:47:31;15.00;99.90
24162;DHT22;12318;51.262;7.066;2023-07-13T02:49:56;14.90;99.90
24162;DHT22;12318;51.262;7.066;2023-07-13T02:52:22;14.90;99.90
24162;DHT22;12318;51.262;7.066;2023-07-13T02:54:48;14.90;99.90
24162;DHT22;12318;51.262;7.066;2023-07-13T02:57:14;14.90;99.90
24162;DHT22;12318;51.262;7.066;2023-07-13T02:59:39;14.90;99.90
24162;DHT22;12318;51.262;7.066;2023-07-13T03:02:05;14.90;99.90
24162;DHT22;12318;51.262;7.066;2023-07-13T03:04:31;14.90;99.90
24162;DHT22;12318;51.262;7.066;2023-07-13T03:06:57;14.90;99.90
24162;DHT22;12318;51.262;7.066;2023-07-13T03:09:24;14.90;99.90
24162;DHT22;12318;51.262;7.066;2023-07-13T03:11:53;14.90;99.90
24162;DHT22;12318;51.262;7.066;2023-07-13T03:14:19;14.90;99.90
24162;DHT22;12318;51.262;7.066;2023-07-13T03:16:45;14.90;99.90
24162;DHT22;12318;51.262;7.066;2023-07-13T03:19:11;14.90;99.90
24162;DHT22;12318;51.262;7.066;2023-07-13T03:21:36;14.90;99.90
24162;DHT22;12318;51.262;7.066;2023-07-13T03:24:02;14.80;99.90
24162;DHT22;12318;51.262;7.066;2023-07-13T03:26:28;14.80;99.90
24162;DHT22;12318;51.262;7.066;2023-07-13T03:28:54;14.70;99.90
24162;DHT22;12318;51.262;7.066;2023-07-13T03:31:22;14.70;99.90
24162;DHT22;12318;51.262;7.066;2023-07-13T03:33:49;14.70;99.90
24162;DHT22;12318;51.262;7.066;2023-07-13T03:36:18;14.80;99.90
24162;DHT22;12318;51.262;7.066;2023-07-13T03:38:50;14.70;99.90
24162;DHT22;12318;51.262;7.066;2023-07-13T03:41:16;14.70;99.90
24162;DHT22;12318;51.262;7.066;2023-07-13T03:43:43;14.70;99.90
24162;DHT22;12318;51.262;7.066;2023-07-13T03:46:09;14.70;99.90
24162;DHT22;12318;51.262;7.066;2023-07-13T03:48:35;14.70;99.90
24162;DHT22;12318;51.262;7.066;2023-07-13T03:51:01;14.70;99.90
24162;DHT22;12318;51.262;7.066;2023-07-13T03:53:27;14.70;99.90
24162;DHT22;12318;51.262;7.066;2023-07-13T03:55:53;14.70;99.90
24162;DHT22;12318;51.262;7.066;2023-07-13T03:58:31;14.70;99.90
24162;DHT22;12318;51.262;7.066;2023-07-13T04:00:58;14.70;99.90
24162;DHT22;12318;51.262;7.066;2023-07-13T04:03:24;14.70;99.90
24162;DHT22;12318;51.262;7.066;2023-07-13T04:05:51;14.70;99.90
24162;DHT22;12318;51.262;7.066;2023-07-13T04:08:16;14.70;99.90
24162;DHT22;12318;51.262;7.066;2023-07-13T04:10:43;14.80;99.90
24162;DHT22;12318;51.262;7.066;2023-07-13T04:13:08;14.80;99.90
24162;DHT22;12318;51.262;7.066;2023-07-13T04:15:35;14.90;99.90
24162;DHT22;12318;51.262;7.066;2023-07-13T04:18:00;14.90;99.90
24162;DHT22;12318;51.262;7.066;2023-07-13T04:20:26;14.90;99.90
24162;DHT22;12318;51.262;7.066;2023-07-13T04:22:52;14.90;99.90
24162;DHT22;12318;51.262;7.066;2023-07-13T04:25:20;14.80;99.90
24162;DHT22;12318;51.262;7.066;2023-07-13T04:27:45;14.90;99.90
24162;DHT22;12318;51.262;7.066;2023-07-13T04:30:11;14.90;99.90
24162;DHT22;12318;51.262;7.066;2023-07-13T04:32:37;14.90;99.90
24162;DHT22;12318;51.262;7.066;2023-07-13T04:35:03;15.00;99.90
24162;DHT22;12318;51.262;7.066;2023-07-13T04:37:30;15.10;99.90
24162;DHT22;12318;51.262;7.066;2023-07-13T04:39:55;15.10;99.90
24162;DHT22;12318;51.262;7.066;2023-07-13T04:42:22;15.30;99.90
24162;DHT22;12318;51.262;7.066;2023-07-13T04:44:49;15.40;99.90
24162;DHT22;12318;51.262;7.066;2023-07-13T04:47:15;15.30;99.90
24162;DHT22;12318;51.262;7.066;2023-07-13T04:49:41;15.40;99.90
24162;DHT22;12318;51.262;7.066;2023-07-13T04:52:07;15.60;99.90
24162;DHT22;12318;51.262;7.066;2023-07-13T04:54:34;15.70;99.90
24162;DHT22;12318;51.262;7.066;2023-07-13T04:57:00;15.70;99.90
24162;DHT22;12318;51.262;7.066;2023-07-13T04:59:26;15.70;99.90
24162;DHT22;12318;51.262;7.066;2023-07-13T05:01:52;15.70;99.90
24162;DHT22;12318;51.262;7.066;2023-07-13T05:04:18;15.50;99.90
24162;DHT22;12318;51.262;7.066;2023-07-13T05:06:44;15.60;99.90
24162;DHT22;12318;51.262;7.066;2023-07-13T05:09:10;15.40;99.90
24162;DHT22;12318;51.262;7.066;2023-07-13T05:11:36;15.50;99.90
24162;DHT22;12318;51.262;7.066;2023-07-13T05:14:01;15.60;99.90
24162;DHT22;12318;51.262;7.066;2023-07-13T05:16:27;15.70;99.90
24162;DHT22;12318;51.262;7.066;2023-07-13T05:18:53;15.70;99.90
24162;DHT22;12318;51.262;7.066;2023-07-13T05:21:19;15.80;99.90
24162;DHT22;12318;51.262;7.066;2023-07-13T05:23:45;15.80;99.90
24162;DHT22;12318;51.262;7.066;2023-07-13T05:26:11;15.70;99.90
24162;DHT22;12318;51.262;7.066;2023-07-13T05:28:37;15.80;99.90
24162;DHT22;12318;51.262;7.066;2023-07-13T05:31:04;15.80;99.90
24162;DHT22;12318;51.262;7.066;2023-07-13T05:33:30;15.80;99.90
24162;DHT22;12318;51.262;7.066;2023-07-13T05:35:56;15.80;99.90
24162;DHT22;12318;51.262;7.066;2023-07-13T05:38:22;15.90;99.90
24162;DHT22;12318;51.262;7.066;2023-07-13T05:40:48;16.00;99.90
24162;DHT22;12318;51.262;7.066;2023-07-13T05:43:14;16.00;99.90
24162;DHT22;12318;51.262;7.066;2023-07-13T05:45:40;15.90;99.90
24162;DHT22;12318;51.262;7.066;2023-07-13T05:48:06;16.00;99.90
24162;DHT22;12318;51.262;7.066;2023-07-13T05:50:32;15.90;99.90
24162;DHT22;12318;51.262;7.066;2023-07-13T05:52:58;15.80;99.90
24162;DHT22;12318;51.262;7.066;2023-07-13T05:55:24;15.80;99.90
24162;DHT22;12318;51.262;7.066;2023-07-13T05:57:49;15.90;99.90
24162;DHT22;12318;51.262;7.066;2023-07-13T06:00:16;15.80;99.90
24162;DHT22;12318;51.262;7.066;2023-07-13T06:02:41;15.90;99.90
24162;DHT22;12318;51.262;7.066;2023-07-13T06:05:08;15.90;99.90
24162;DHT22;12318;51.262;7.066;2023-07-13T06:07:34;16.10;99.90
24162;DHT22;12318;51.262;7.066;2023-07-13T06:09:59;16.20;99.90
24162;DHT22;12318;51.262;7.066;2023-07-13T06:12:26;16.10;99.90
24162;DHT22;12318;51.262;7.066;2023-07-13T06:14:52;16.00;99.90
24162;DHT22;12318;51.262;7.066;2023-07-13T06:17:17;16.30;99.90
24162;DHT22;12318;51.262;7.066;2023-07-13T06:19:43;16.40;99.90
24162;DHT22;12318;51.262;7.066;2023-07-13T06:22:09;16.30;99.90
24162;DHT22;12318;51.262;7.066;2023-07-13T06:24:35;16.30;99.90
24162;DHT22;12318;51.262;7.066;2023-07-13T06:27:01;16.30;99.90
24162;DHT22;12318;51.262;7.066;2023-07-13T06:29:27;16.30;99.90
24162;DHT22;12318;51.262;7.066;2023-07-13T06:31:52;16.40;99.90
24162;DHT22;12318;51.262;7.066;2023-07-13T06:34:18;16.60;99.90
24162;DHT22;12318;51.262;7.066;2023-07-13T06:36:44;16.80;99.90
24162;DHT22;12318;51.262;7.066;2023-07-13T06:39:10;17.00;99.90
24162;DHT22;12318;51.262;7.066;2023-07-13T06:41:35;17.20;99.90
24162;DHT22;12318;51.262;7.066;2023-07-13T06:44:01;17.40;99.90
24162;DHT22;12318;51.262;7.066;2023-07-13T06:46:28;17.40;99.90
24162;DHT22;12318;51.262;7.066;2023-07-13T06:48:55;17.40;99.90
24162;DHT22;12318;51.262;7.066;2023-07-13T06:51:21;17.30;99.90
24162;DHT22;12318;51.262;7.066;2023-07-13T06:53:46;17.20;99.90
24162;DHT22;12318;51.262;7.066;2023-07-13T06:56:12;17.10;99.90
24162;DHT22;12318;51.262;7.066;2023-07-13T06:58:38;17.20;99.90
24162;DHT22;12318;51.262;7.066;2023-07-13T07:01:04;17.30;99.90
24162;DHT22;12318;51.262;7.066;2023-07-13T07:03:30;17.20;99.90
24162;DHT22;12318;51.262;7.066;2023-07-13T07:06:23;17.40;99.90
24162;DHT22;12318;51.262;7.066;2023-07-13T07:08:50;17.60;99.90
24162;DHT22;12318;51.262;7.066;2023-07-13T07:11:23;17.80;99.90
24162;DHT22;12318;51.262;7.066;2023-07-13T07:13:50;17.50;99.90
24162;DHT22;12318;51.262;7.066;2023-07-13T07:16:18;17.80;99.90
24162;DHT22;12318;51.262;7.066;2023-07-13T07:18:43;18.00;99.90
24162;DHT22;12318;51.262;7.066;2023-07-13T07:21:10;18.10;99.90
24162;DHT22;12318;51.262;7.066;2023-07-13T07:23:35;18.20;99.90
24162;DHT22;12318;51.262;7.066;2023-07-13T07:26:01;18.20;99.90
24162;DHT22;12318;51.262;7.066;2023-07-13T07:28:27;18.40;99.90
24162;DHT22;12318;51.262;7.066;2023-07-13T07:30:55;18.60;99.90
24162;DHT22;12318;51.262;7.066;2023-07-13T07:33:21;18.70;99.90
24162;DHT22;12318;51.262;7.066;2023-07-13T07:35:47;18.50;99.90
24162;DHT22;12318;51.262;7.066;2023-07-13T07:38:12;18.20;99.90
24162;DHT22;12318;51.262;7.066;2023-07-13T07:40:39;18.20;99.90
24162;DHT22;12318;51.262;7.066;2023-07-13T07:43:10;18.30;99.90
24162;DHT22;12318;51.262;7.066;2023-07-13T07:45:37;18.30;99.90
24162;DHT22;12318;51.262;7.066;2023-07-13T07:48:04;18.10;99.90
24162;DHT22;12318;51.262;7.066;2023-07-13T07:50:30;17.90;99.90
24162;DHT22;12318;51.262;7.066;2023-07-13T07:52:56;17.70;99.90
24162;DHT22;12318;51.262;7.066;2023-07-13T07:55:23;17.60;99.90
24162;DHT22;12318;51.262;7.066;2023-07-13T07:57:49;17.90;99.90
24162;DHT22;12318;51.262;7.066;2023-07-13T08:00:16;18.10;99.90
24162;DHT22;12318;51.262;7.066;2023-07-13T08:02:43;18.10;99.90
24162;DHT22;12318;51.262;7.066;2023-07-13T08:05:09;18.30;99.90
24162;DHT22;12318;51.262;7.066;2023-07-13T08:07:39;18.20;99.90
24162;DHT22;12318;51.262;7.066;2023-07-13T08:10:08;18.20;99.90
24162;DHT22;12318;51.262;7.066;2023-07-13T08:12:38;18.10;99.90
24162;DHT22;12318;51.262;7.066;2023-07-13T08:15:13;17.90;99.90
24162;DHT22;12318;51.262;7.066;2023-07-13T08:17:39;18.00;99.90
24162;DHT22;12318;51.262;7.066;2023-07-13T08:20:05;18.10;99.90
24162;DHT22;12318;51.262;7.066;2023-07-13T08:22:31;18.00;99.90
24162;DHT22;12318;51.262;7.066;2023-07-13T08:24:58;18.00;99.90
24162;DHT22;12318;51.262;7.066;2023-07-13T08:27:25;18.20;99.90
24162;DHT22;12318;51.262;7.066;2023-07-13T08:29:52;18.20;99.90
24162;DHT22;12318;51.262;7.066;2023-07-13T08:32:19;18.20;99.90
24162;DHT22;12318;51.262;7.066;2023-07-13T08:34:46;18.10;99.90
24162;DHT22;12318;51.262;7.066;2023-07-13T08:37:12;18.00;99.90
24162;DHT22;12318;51.262;7.066;2023-07-13T08:39:38;18.00;99.90
24162;DHT22;12318;51.262;7.066;2023-07-13T08:45:12;18.20;99.90
24162;DHT22;12318;51.262;7.066;2023-07-13T08:47:46;18.50;99.90
24162;DHT22;12318;51.262;7.066;2023-07-13T08:50:16;18.70;99.90
24162;DHT22;12318;51.262;7.066;2023-07-13T08:52:44;18.50;99.90
24162;DHT22;12318;51.262;7.066;2023-07-13T08:55:16;18.70;99.90
24162;DHT22;12318;51.262;7.066;2023-07-13T08:57:45;19.00;99.90
24162;DHT22;12318;51.262;7.066;2023-07-13T09:00:12;19.60;99.90
24162;DHT22;12318;51.262;7.066;2023-07-13T09:02:56;20.00;99.90
24162;DHT22;12318;51.262;7.066;2023-07-13T09:05:30;20.10;99.90
24162;DHT22;12318;51.262;7.066;2023-07-13T09:08:33;19.90;99.90
24162;DHT22;12318;51.262;7.066;2023-07-13T09:16:21;20.30;99.90
24162;DHT22;12318;51.262;7.066;2023-07-13T09:18:50;20.10;99.90
24162;DHT22;12318;51.262;7.066;2023-07-13T09:21:18;20.20;99.90
24162;DHT22;12318;51.262;7.066;2023-07-13T09:23:47;20.20;99.90
24162;DHT22;12318;51.262;7.066;2023-07-13T09:26:21;20.20;99.90
24162;DHT22;12318;51.262;7.066;2023-07-13T09:29:19;20.50;99.90
24162;DHT22;12318;51.262;7.066;2023-07-13T09:31:50;20.80;99.90
24162;DHT22;12318;51.262;7.066;2023-07-13T09:34:18;20.80;99.90
24162;DHT22;12318;51.262;7.066;2023-07-13T09:36:44;21.00;99.90
24162;DHT22;12318;51.262;7.066;2023-07-13T09:42:01;21.00;99.90
24162;DHT22;12318;51.262;7.066;2023-07-13T09:44:49;21.10;99.90
24162;DHT22;12318;51.262;7.066;2023-07-13T09:47:18;21.10;99.90
24162;DHT22;12318;51.262;7.066;2023-07-13T09:49:44;20.60;99.90
24162;DHT22;12318;51.262;7.066;2023-07-13T09:52:14;20.70;99.90
24162;DHT22;12318;51.262;7.066;2023-07-13T09:54:44;20.80;99.90
24162;DHT22;12318;51.262;7.066;2023-07-13T09:57:15;20.60;99.90
24162;DHT22;12318;51.262;7.066;2023-07-13T09:59:44;20.70;99.90
24162;DHT22;12318;51.262;7.066;2023-07-13T10:02:25;20.70;99.90
24162;DHT22;12318;51.262;7.066;2023-07-13T10:05:11;20.80;99.90
24162;DHT22;12318;51.262;7.066;2023-07-13T10:07:43;20.90;99.90
24162;DHT22;12318;51.262;7.066;2023-07-13T10:10:19;20.50;99.90
24162;DHT22;12318;51.262;7.066;2023-07-13T10:12:46;20.30;99.90
24162;DHT22;12318;51.262;7.066;2023-07-13T10:15:19;20.20;99.90
24162;DHT22;12318;51.262;7.066;2023-07-13T10:17:46;20.40;99.90
24162;DHT22;12318;51.262;7.066;2023-07-13T10:20:12;20.70;99.90
24162;DHT22;12318;51.262;7.066;2023-07-13T10:23:04;20.60;99.90
24162;DHT22;12318;51.262;7.066;2023-07-13T10:25:38;20.70;99.90
24162;DHT22;12318;51.262;7.066;2023-07-13T10:28:25;20.80;99.90
24162;DHT22;12318;51.262;7.066;2023-07-13T10:30:53;20.80;99.90
24162;DHT22;12318;51.262;7.066;2023-07-13T10:33:21;21.10;99.90
24162;DHT22;12318;51.262;7.066;2023-07-13T10:35:51;20.90;99.90
24162;DHT22;12318;51.262;7.066;2023-07-13T10:38:22;20.90;99.90
24162;DHT22;12318;51.262;7.066;2023-07-13T10:41:02;21.30;99.90
24162;DHT22;12318;51.262;7.066;2023-07-13T10:43:42;21.30;99.90
24162;DHT22;12318;51.262;7.066;2023-07-13T10:46:12;21.30;99.90
24162;DHT22;12318;51.262;7.066;2023-07-13T10:48:42;21.00;99.90
24162;DHT22;12318;51.262;7.066;2023-07-13T10:51:10;21.40;99.90
24162;DHT22;12318;51.262;7.066;2023-07-13T10:53:38;21.60;99.90
24162;DHT22;12318;51.262;7.066;2023-07-13T10:58:41;21.40;99.90
24162;DHT22;12318;51.262;7.066;2023-07-13T11:01:14;21.40;99.90
24162;DHT22;12318;51.262;7.066;2023-07-13T11:14:09;20.70;99.90
24162;DHT22;12318;51.262;7.066;2023-07-13T11:16:47;20.70;99.90
24162;DHT22;12318;51.262;7.066;2023-07-13T11:22:24;20.60;99.90
24162;DHT22;12318;51.262;7.066;2023-07-13T11:24:51;20.50;99.90
24162;DHT22;12318;51.262;7.066;2023-07-13T11:27:51;20.60;99.90
24162;DHT22;12318;51.262;7.066;2023-07-13T11:30:24;20.70;99.90
24162;DHT22;12318;51.262;7.066;2023-07-13T11:33:48;20.80;99.90
24162;DHT22;12318;51.262;7.066;2023-07-13T11:36:17;20.80;99.90
24162;DHT22;12318;51.262;7.066;2023-07-13T11:41:43;21.50;99.90
24162;DHT22;12318;51.262;7.066;2023-07-13T11:44:16;21.70;99.90
24162;DHT22;12318;51.262;7.066;2023-07-13T11:46:54;21.80;99.90
24162;DHT22;12318;51.262;7.066;2023-07-13T11:49:22;22.20;99.90
24162;DHT22;12318;51.262;7.066;2023-07-13T11:51:48;22.40;99.90
24162;DHT22;12318;51.262;7.066;2023-07-13T11:54:30;22.40;97.30
24162;DHT22;12318;51.262;7.066;2023-07-13T11:57:03;22.30;97.20
24162;DHT22;12318;51.262;7.066;2023-07-13T11:59:33;21.60;95.00
24162;DHT22;12318;51.262;7.066;2023-07-13T12:02:08;21.40;99.30
24162;DHT22;12318;51.262;7.066;2023-07-13T12:04:41;21.50;97.00
24162;DHT22;12318;51.262;7.066;2023-07-13T12:07:15;21.70;95.90
24162;DHT22;12318;51.262;7.066;2023-07-13T12:09:41;21.70;95.00
24162;DHT22;12318;51.262;7.066;2023-07-13T12:12:17;21.50;94.90
24162;DHT22;12318;51.262;7.066;2023-07-13T12:14:44;22.00;95.60
24162;DHT22;12318;51.262;7.066;2023-07-13T12:17:20;22.40;95.10
24162;DHT22;12318;51.262;7.066;2023-07-13T12:19:48;22.50;90.40
24162;DHT22;12318;51.262;7.066;2023-07-13T12:22:15;22.60;87.40
24162;DHT22;12318;51.262;7.066;2023-07-13T12:24:43;22.80;87.20
24162;DHT22;12318;51.262;7.066;2023-07-13T12:27:26;22.30;88.00
24162;DHT22;12318;51.262;7.066;2023-07-13T12:29:57;22.30;90.50
24162;DHT22;12318;51.262;7.066;2023-07-13T12:32:25;22.20;87.30
24162;DHT22;12318;51.262;7.066;2023-07-13T12:35:14;22.20;83.10
24162;DHT22;12318;51.262;7.066;2023-07-13T12:37:45;22.30;83.70
24162;DHT22;12318;51.262;7.066;2023-07-13T12:40:19;22.40;83.80
24162;DHT22;12318;51.262;7.066;2023-07-13T12:42:49;22.50;88.10
24162;DHT22;12318;51.262;7.066;2023-07-13T12:45:25;22.40;82.50
24162;DHT22;12318;51.262;7.066;2023-07-13T12:48:10;22.70;85.50
24162;DHT22;12318;51.262;7.066;2023-07-13T12:50:40;22.70;79.30
24162;DHT22;12318;51.262;7.066;2023-07-13T12:53:13;22.20;78.40
24162;DHT22;12318;51.262;7.066;2023-07-13T12:55:46;21.90;83.50
24162;DHT22;12318;51.262;7.066;2023-07-13T12:58:32;21.90;83.60
24162;DHT22;12318;51.262;7.066;2023-07-13T13:01:02;21.90;91.70
24162;DHT22;12318;51.262;7.066;2023-07-13T13:03:35;22.00;87.30
24162;DHT22;12318;51.262;7.066;2023-07-13T13:06:04;22.20;85.80
24162;DHT22;12318;51.262;7.066;2023-07-13T13:08:32;22.30;82.60
24162;DHT22;12318;51.262;7.066;2023-07-13T13:10:58;22.70;86.80
24162;DHT22;12318;51.262;7.066;2023-07-13T13:13:24;22.90;79.10
24162;DHT22;12318;51.262;7.066;2023-07-13T13:15:50;23.00;76.50
24162;DHT22;12318;51.262;7.066;2023-07-13T13:18:18;22.90;66.60
24162;DHT22;12318;51.262;7.066;2023-07-13T13:20:45;22.60;65.30
24162;DHT22;12318;51.262;7.066;2023-07-13T13:23:16;22.50;63.00
24162;DHT22;12318;51.262;7.066;2023-07-13T13:25:47;22.30;66.00
24162;DHT22;12318;51.262;7.066;2023-07-13T13:28:18;22.20;66.90
24162;DHT22;12318;51.262;7.066;2023-07-13T13:30:46;21.90;71.40
24162;DHT22;12318;51.262;7.066;2023-07-13T13:33:15;21.80;68.90
24162;DHT22;12318;51.262;7.066;2023-07-13T13:35:42;21.80;72.20
24162;DHT22;12318;51.262;7.066;2023-07-13T13:38:17;22.00;74.30
24162;DHT22;12318;51.262;7.066;2023-07-13T13:40:45;21.80;73.80
24162;DHT22;12318;51.262;7.066;2023-07-13T13:43:20;21.60;72.60
24162;DHT22;12318;51.262;7.066;2023-07-13T13:45:46;21.60;70.10
24162;DHT22;12318;51.262;7.066;2023-07-13T13:48:20;21.60;74.70
24162;DHT22;12318;51.262;7.066;2023-07-13T13:50:48;21.50;77.50
24162;DHT22;12318;51.262;7.066;2023-07-13T13:53:14;21.50;76.30
24162;DHT22;12318;51.262;7.066;2023-07-13T13:55:40;21.70;79.00
24162;DHT22;12318;51.262;7.066;2023-07-13T13:58:10;21.70;76.60
24162;DHT22;12318;51.262;7.066;2023-07-13T14:00:37;21.60;83.90
24162;DHT22;12318;51.262;7.066;2023-07-13T14:03:03;21.70;80.70
24162;DHT22;12318;51.262;7.066;2023-07-13T14:05:29;21.70;73.90
24162;DHT22;12318;51.262;7.066;2023-07-13T14:07:55;21.70;73.70
24162;DHT22;12318;51.262;7.066;2023-07-13T14:10:25;21.70;76.40
24162;DHT22;12318;51.262;7.066;2023-07-13T14:12:54;21.40;74.70
24162;DHT22;12318;51.262;7.066;2023-07-13T14:15:25;21.10;77.50
24162;DHT22;12318;51.262;7.066;2023-07-13T14:17:51;21.20;79.80
24162;DHT22;12318;51.262;7.066;2023-07-13T14:20:19;21.20;79.70
24162;DHT22;12318;51.262;7.066;2023-07-13T14:22:46;21.20;80.10
24162;DHT22;12318;51.262;7.066;2023-07-13T14:25:16;21.20;84.70
24162;DHT22;12318;51.262;7.066;2023-07-13T14:27:44;21.20;91.30
24162;DHT22;12318;51.262;7.066;2023-07-13T14:30:18;21.30;92.30
24162;DHT22;12318;51.262;7.066;2023-07-13T14:32:44;21.20;92.30
24162;DHT22;12318;51.262;7.066;2023-07-13T14:35:15;21.50;93.50
24162;DHT22;12318;51.262;7.066;2023-07-13T14:37:42;21.70;89.50
24162;DHT22;12318;51.262;7.066;2023-07-13T14:40:13;21.80;90.40
24162;DHT22;12318;51.262;7.066;2023-07-13T14:42:39;22.20;83.10
24162;DHT22;12318;51.262;7.066;2023-07-13T14:45:13;22.60;80.80
24162;DHT22;12318;51.262;7.066;2023-07-13T14:47:39;22.50;71.70
24162;DHT22;12318;51.262;7.066;2023-07-13T14:50:05;22.50;76.70
24162;DHT22;12318;51.262;7.066;2023-07-13T14:52:36;22.30;71.00
24162;DHT22;12318;51.262;7.066;2023-07-13T14:55:02;22.40;78.90
24162;DHT22;12318;51.262;7.066;2023-07-13T14:57:27;22.60;75.10
24162;DHT22;12318;51.262;7.066;2023-07-13T14:59:53;22.50;72.30
24162;DHT22;12318;51.262;7.066;2023-07-13T15:04:52;21.80;80.20
24162;DHT22;12318;51.262;7.066;2023-07-13T15:07:20;21.80;80.90
24162;DHT22;12318;51.262;7.066;2023-07-13T15:09:46;21.80;87.10
24162;DHT22;12318;51.262;7.066;2023-07-13T15:12:13;21.90;85.30
24162;DHT22;12318;51.262;7.066;2023-07-13T15:14:39;21.90;84.30
24162;DHT22;12318;51.262;7.066;2023-07-13T15:17:08;21.80;82.80
24162;DHT22;12318;51.262;7.066;2023-07-13T15:19:41;21.80;80.30
24162;DHT22;12318;51.262;7.066;2023-07-13T15:22:08;21.50;80.10
24162;DHT22;12318;51.262;7.066;2023-07-13T15:24:35;21.60;85.50
24162;DHT22;12318;51.262;7.066;2023-07-13T15:27:04;21.60;86.50
24162;DHT22;12318;51.262;7.066;2023-07-13T15:29:29;21.40;90.40
24162;DHT22;12318;51.262;7.066;2023-07-13T15:31:55;20.50;99.90
24162;DHT22;12318;51.262;7.066;2023-07-13T15:34:24;19.80;99.90
24162;DHT22;12318;51.262;7.066;2023-07-13T15:36:51;18.90;99.90
24162;DHT22;12318;51.262;7.066;2023-07-13T15:39:20;18.50;99.90
24162;DHT22;12318;51.262;7.066;2023-07-13T15:41:46;18.30;99.90
24162;DHT22;12318;51.262;7.066;2023-07-13T15:44:23;18.20;99.90
24162;DHT22;12318;51.262;7.066;2023-07-13T15:46:50;18.10;99.90
24162;DHT22;12318;51.262;7.066;2023-07-13T15:49:16;17.90;99.90
24162;DHT22;12318;51.262;7.066;2023-07-13T15:51:41;17.90;99.90
24162;DHT22;12318;51.262;7.066;2023-07-13T15:54:13;18.00;99.90
24162;DHT22;12318;51.262;7.066;2023-07-13T15:56:39;17.90;99.90
24162;DHT22;12318;51.262;7.066;2023-07-13T15:59:11;17.90;99.90
24162;DHT22;12318;51.262;7.066;2023-07-13T16:01:40;17.80;99.90
24162;DHT22;12318;51.262;7.066;2023-07-13T16:04:08;17.80;99.90
24162;DHT22;12318;51.262;7.066;2023-07-13T16:06:36;17.80;99.90
24162;DHT22;12318;51.262;7.066;2023-07-13T16:09:03;17.80;99.90
24162;DHT22;12318;51.262;7.066;2023-07-13T16:11:38;17.90;99.90
24162;DHT22;12318;51.262;7.066;2023-07-13T16:14:05;17.80;99.90
24162;DHT22;12318;51.262;7.066;2023-07-13T16:16:34;17.90;99.90